Terminal Aerodrome Forecast
Issued by NWS Upton, NY

Home | Current Version | Previous Version | Text Only | Print | Product List | Glossary On
Versions: 1 2 3 4 5 6 7 8 9 10 11 12 13 14 15 16 17 18 19 20 21 22 23 24 25 26
000
FTUS41 KOKX 280800 AAB
TAFEWR
TAF AMD
KEWR 280844Z 2809/2912 18007KT P6SM VCSH FEW008 SCT050 BKN100
      TEMPO 2810/2812 5SM BR
     FM281200 22010KT P6SM BKN045
     FM281400 24014G21KT P6SM VCSH BKN045
     FM281700 25016G23KT P6SM SCT050
     FM282100 27018G26KT P6SM SCT050
     FM290100 28015G23KT P6SM FEW050 SCT250
     FM290800 27009KT P6SM FEW250=

USA.gov is the U.S. government's official web portal to all federal, state and local government web resources and services.